Haley, North Dakota
Current Conditions -  °F | °C
As of 2:53 AM on Thursday 29 Jan 2015 (Local Time) from KHEI Reporting Station
Broken Clouds Broken Clouds  
Wind Chill: 20°   Ceiling: 2300
Heat Index: 30°   Visibility: 10mi
Dew Point: 23°   Wind: 14mph
Humidity: 75%   Direction: 300°WNW
Pressure: 30.36"   Gusts: NA
Location:  46.1126°N, 103.12°W
Report Text: KHEI 290953Z AUTO 30012KT 10SM BKN023 M01/M05 A3036 RMK AO2 PK WND 32026/0925 SLP310 T10111050
Loading
Personal Weather Stations






























Interactive Weather Map New forecast layout! Learn more

10-Day Weather Forecast

Advertisements
Track Severe Weather on mobile